createdAt,value
2022-10-23T00:04:47.595Z,9.95
2022-10-23T00:09:50.991Z,11.23
2022-10-23T00:14:55.809Z,14.13
2022-10-23T00:19:59.177Z,15.65
2022-10-23T00:25:02.687Z,13.05
2022-10-23T00:30:09.194Z,13.80
2022-10-23T00:35:12.742Z,14.25
2022-10-23T00:40:16.259Z,16.23
2022-10-23T00:45:25.720Z,11.43
2022-10-23T00:50:31.312Z,12.73
2022-10-23T00:55:38.401Z,19.30
2022-10-23T01:00:49.647Z,12.82
2022-10-23T01:05:58.360Z,14.85
2022-10-23T01:11:11.848Z,14.48
2022-10-23T01:16:22.324Z,12.18
2022-10-23T01:21:34.106Z,12.48
2022-10-23T01:26:49.046Z,12.93
2022-10-23T01:31:59.669Z,12.88
2022-10-23T01:37:05.369Z,13.52
2022-10-23T01:42:12.856Z,15.82
2022-10-23T01:52:25.308Z,16.17
2022-10-23T01:57:32.434Z,15.20
2022-10-23T02:02:39.081Z,16.70
2022-10-23T02:07:42.794Z,16.25
2022-10-23T02:12:56.139Z,19.13
2022-10-23T02:18:36.130Z,17.15
2022-10-23T02:23:45.728Z,20.65
2022-10-23T02:28:53.275Z,19.98
2022-10-23T02:33:58.422Z,30.23
2022-10-23T02:39:01.788Z,26.50
2022-10-23T02:44:20.140Z,23.35
2022-10-23T02:49:33.161Z,23.90
2022-10-23T02:54:52.294Z,17.77
2022-10-23T03:00:03.572Z,18.65
2022-10-23T03:05:13.730Z,30.73
2022-10-23T03:10:17.506Z,25.88
2022-10-23T03:15:20.844Z,20.20
2022-10-23T03:20:25.825Z,19.52
2022-10-23T03:25:29.907Z,19.80
2022-10-23T03:30:33.265Z,19.43
2022-10-23T03:35:38.077Z,19.83
2022-10-23T03:45:44.680Z,22.30
2022-10-23T03:50:49.420Z,19.33
2022-10-23T03:55:52.732Z,17.00
2022-10-23T04:00:56.368Z,19.20
2022-10-23T04:06:01.865Z,20.42
2022-10-23T04:11:05.367Z,21.70
2022-10-23T04:16:09.010Z,21.50
2022-10-23T04:21:13.794Z,22.40
2022-10-23T04:26:17.330Z,21.45
2022-10-23T04:31:20.806Z,27.40
2022-10-23T04:36:26.108Z,21.17
2022-10-23T04:41:29.580Z,24.17
2022-10-23T04:46:32.971Z,22.73
2022-10-23T04:51:38.650Z,20.33
2022-10-23T04:56:42.016Z,22.00
2022-10-23T05:01:45.839Z,24.90
2022-10-23T05:06:50.695Z,29.92
2022-10-23T05:17:04.109Z,25.02
2022-10-23T05:22:10.042Z,24.77
2022-10-23T05:27:13.595Z,26.10
2022-10-23T05:32:18.063Z,24.02
2022-10-23T05:37:23.344Z,28.25
2022-10-23T05:42:26.814Z,22.27
2022-10-23T05:47:31.640Z,25.02
2022-10-23T05:57:39.691Z,28.23
2022-10-23T06:02:43.271Z,24.65
2022-10-23T06:07:48.153Z,27.58
2022-10-23T06:17:55.726Z,23.58
2022-10-23T06:23:00.599Z,20.80
2022-10-23T06:33:06.971Z,24.80
2022-10-23T06:38:11.810Z,19.92
2022-10-23T06:48:18.350Z,22.63
2022-10-23T06:53:24.911Z,22.98
2022-10-23T06:58:28.693Z,18.80
2022-10-23T07:03:32.064Z,23.73
2022-10-23T07:08:37.880Z,21.58
2022-10-23T07:13:42.729Z,19.35
2022-10-23T07:23:51.095Z,19.65
2022-10-23T07:28:55.693Z,24.27
2022-10-23T07:33:59.201Z,22.95
2022-10-23T07:39:05.322Z,20.08
2022-10-23T07:44:08.872Z,20.52
2022-10-23T07:49:13.138Z,20.60
2022-10-23T07:54:17.871Z,22.05
2022-10-23T07:59:21.293Z,22.05
2022-10-23T08:04:25.037Z,21.83
2022-10-23T08:09:29.846Z,22.13
2022-10-23T08:19:37.088Z,20.88
2022-10-23T08:24:41.861Z,22.87
2022-10-23T08:34:48.648Z,23.00
2022-10-23T08:39:54.960Z,23.45
2022-10-23T08:45:06.897Z,24.85
2022-10-23T08:50:21.117Z,21.55
2022-10-23T08:55:31.422Z,23.97
2022-10-23T09:00:35.842Z,25.75
2022-10-23T09:05:54.425Z,27.02
2022-10-23T09:11:04.798Z,27.42
2022-10-23T09:16:16.132Z,28.67
2022-10-23T09:21:21.020Z,25.98
2022-10-23T09:31:29.049Z,27.43
2022-10-23T09:36:34.525Z,31.63
2022-10-23T09:41:41.643Z,34.80
2022-10-23T09:46:47.551Z,27.05
2022-10-23T09:52:06.567Z,29.45
2022-10-23T09:57:24.123Z,30.83
2022-10-23T10:02:29.787Z,31.90
2022-10-23T10:07:35.959Z,30.02
2022-10-23T10:12:51.041Z,31.95
2022-10-23T10:18:04.870Z,36.23
2022-10-23T10:23:18.508Z,32.45
2022-10-23T10:28:39.897Z,33.53
2022-10-23T10:33:54.682Z,32.38
2022-10-23T10:39:01.827Z,36.22
2022-10-23T10:44:20.898Z,37.55
2022-10-23T10:49:30.542Z,37.70
2022-10-23T10:54:45.102Z,38.03
2022-10-23T10:59:57.437Z,43.95
2022-10-23T11:05:13.388Z,38.10
2022-10-23T11:10:19.189Z,39.78
2022-10-23T11:15:28.653Z,40.90
2022-10-23T11:20:46.233Z,39.30
2022-10-23T11:26:02.116Z,40.38
2022-10-23T11:31:18.508Z,39.13
2022-10-23T11:36:47.201Z,43.20
2022-10-23T11:41:54.774Z,39.90
2022-10-23T11:47:08.615Z,41.00
2022-10-23T11:52:26.450Z,41.92
2022-10-23T12:02:38.640Z,48.83
2022-10-23T12:07:43.500Z,43.65
2022-10-23T12:12:57.947Z,43.35
2022-10-23T12:18:16.082Z,43.83
2022-10-23T12:23:48.067Z,44.92
2022-10-23T12:29:00.599Z,40.72
2022-10-23T12:34:19.936Z,36.63
2022-10-23T12:39:27.382Z,37.80
2022-10-23T12:44:32.265Z,35.65
2022-10-23T12:54:41.660Z,36.13
2022-10-23T12:59:46.056Z,42.75
2022-10-23T13:04:52.230Z,40.92
2022-10-23T13:09:56.833Z,50.47
2022-10-23T13:15:03.698Z,45.63
2022-10-23T13:20:22.318Z,42.45
2022-10-23T13:25:28.163Z,51.47
2022-10-23T13:30:33.760Z,41.63
2022-10-23T13:35:40.022Z,40.95
2022-10-23T13:40:43.396Z,49.40
2022-10-23T13:45:47.151Z,50.45
2022-10-23T13:50:52.070Z,47.22
2022-10-23T13:55:58.585Z,45.38
2022-10-23T14:01:04.545Z,41.95
2022-10-23T14:06:10.228Z,36.55
2022-10-23T14:16:21.880Z,42.10
2022-10-23T14:21:27.057Z,45.30
2022-10-23T14:26:30.639Z,40.60
2022-10-23T14:31:34.040Z,52.22
2022-10-23T14:36:49.775Z,48.03
2022-10-23T14:41:53.942Z,52.55
2022-10-23T14:46:57.297Z,43.67
2022-10-23T14:52:02.274Z,44.35
2022-10-23T14:57:06.262Z,44.00
2022-10-23T15:02:11.612Z,43.53
2022-10-23T15:07:16.397Z,48.20
2022-10-23T15:12:19.873Z,37.67
2022-10-23T15:17:23.531Z,35.10
2022-10-23T15:22:28.695Z,38.25
2022-10-23T15:27:32.083Z,35.08
2022-10-23T15:32:35.813Z,31.33
2022-10-23T15:37:40.793Z,29.42
2022-10-23T15:42:44.616Z,32.78
2022-10-23T15:47:48.235Z,36.03
2022-10-23T15:52:53.553Z,30.95
2022-10-23T15:58:02.042Z,33.33
2022-10-23T16:03:05.815Z,38.00
2022-10-23T16:08:10.752Z,37.90
2022-10-23T16:13:14.167Z,38.47
2022-10-23T16:18:18.864Z,36.83
2022-10-23T16:23:24.202Z,31.58
2022-10-23T16:28:28.017Z,29.75
2022-10-23T16:33:31.431Z,36.50
2022-10-23T16:38:37.238Z,32.45
2022-10-23T16:43:40.767Z,31.42
2022-10-23T16:48:44.412Z,31.23
2022-10-23T16:53:50.324Z,29.52
2022-10-23T16:58:54.057Z,32.60
2022-10-23T17:03:58.869Z,30.50
2022-10-23T17:09:04.951Z,23.65
2022-10-23T17:14:11.335Z,27.90
2022-10-23T17:19:40.028Z,29.85
2022-10-23T17:24:47.390Z,24.88
2022-10-23T17:29:53.588Z,24.85
2022-10-23T17:34:57.116Z,28.40
2022-10-23T17:40:03.643Z,23.20
2022-10-23T17:45:08.137Z,27.00
2022-10-23T17:50:13.964Z,26.48
2022-10-23T17:55:19.332Z,18.73
2022-10-23T18:00:23.005Z,22.05
2022-10-23T18:05:26.455Z,24.02
2022-10-23T18:10:31.318Z,27.55
2022-10-23T18:20:42.733Z,24.05
2022-10-23T18:25:47.608Z,24.73
2022-10-23T18:36:00.532Z,21.80
2022-10-23T18:41:05.550Z,23.17
2022-10-23T18:46:09.446Z,19.13
2022-10-23T18:51:17.384Z,22.43
2022-10-23T18:56:26.474Z,22.00
2022-10-23T19:01:31.330Z,24.20
2022-10-23T19:06:37.585Z,21.20
2022-10-23T19:11:43.764Z,18.80
2022-10-23T19:16:57.882Z,18.50
2022-10-23T19:22:03.569Z,15.63
2022-10-23T19:27:09.166Z,17.90
2022-10-23T19:32:13.165Z,18.55
2022-10-23T19:37:16.771Z,19.53
2022-10-23T19:42:21.729Z,20.70
2022-10-23T19:47:25.078Z,19.92
2022-10-23T19:52:28.688Z,18.15
2022-10-23T19:57:35.113Z,19.45
2022-10-23T20:02:38.543Z,26.63
2022-10-23T20:07:42.775Z,17.38
2022-10-23T20:12:56.878Z,19.95
2022-10-23T20:18:07.135Z,18.98
2022-10-23T20:23:10.891Z,16.90
2022-10-23T20:28:16.053Z,21.65
2022-10-23T20:33:19.449Z,18.70
2022-10-23T20:38:23.401Z,19.30
2022-10-23T20:43:28.186Z,20.67
2022-10-23T20:48:35.297Z,21.75
2022-10-23T20:53:39.872Z,22.05
2022-10-23T20:58:45.104Z,27.65
2022-10-23T21:03:52.117Z,20.67
2022-10-23T21:08:57.483Z,23.45
2022-10-23T21:14:04.635Z,25.55
2022-10-23T21:19:14.453Z,22.48
2022-10-23T21:24:18.688Z,25.75
2022-10-23T21:29:23.449Z,26.20
2022-10-23T21:34:27.570Z,27.27
2022-10-23T21:39:31.702Z,22.05
2022-10-23T21:44:36.639Z,24.27
2022-10-23T21:49:42.435Z,22.33
2022-10-23T21:54:45.777Z,22.33
2022-10-23T21:59:50.831Z,19.63
2022-10-23T22:04:54.462Z,19.40
2022-10-23T22:09:57.835Z,19.92
2022-10-23T22:15:02.649Z,23.80
2022-10-23T22:20:07.338Z,17.75
2022-10-23T22:25:11.351Z,18.42
2022-10-23T22:30:17.707Z,19.20
2022-10-23T22:40:24.195Z,20.30
2022-10-23T22:45:29.007Z,22.10
2022-10-23T22:55:36.775Z,19.50
2022-10-23T23:00:43.646Z,19.58
2022-10-23T23:05:49.072Z,16.17
2022-10-23T23:10:56.304Z,19.23
2022-10-23T23:16:01.210Z,18.48
2022-10-23T23:21:06.327Z,17.30
2022-10-23T23:26:10.070Z,16.08
2022-10-23T23:31:19.210Z,17.38
2022-10-23T23:36:24.328Z,19.52
2022-10-23T23:41:29.765Z,19.58
2022-10-23T23:46:34.657Z,19.13
2022-10-23T23:56:41.481Z,15.15
